Tiempo atmosférico en la estación meteorológica de Almería Aeropuerto, Almería (21 m.)



Fecha
DESCASC
Temp. máxima en grados centígrados (hora)
DESCASC
Temp. mínima en grados centígrados (hora)
DESCASC
Temp. media en grados centígrados
DESCASC
Racha de viento máxima en m/sg (hora)
DESCASC
Velocidad máxima media en intervalos de 10 minutos(hora)
DESCASC
Precipitaciones diarias en mm
DESCASC
Precipitaciones de 00:00 a 06:00 en mm
DESCASC
Precipitaciones de 06:00 a 12:00 en mm
DESCASC
Precipitaciones de 12:00 a 18:00 en mm
DESCASC
Precipitaciones de 18:00 a 24:00 en mm
DESCASC
13-06-2019 29.2 (13:00) 19.2 (05:50) 24.2 15 (14:30) 10.56 (14:20) 0 0 0 0 0
12-06-2019 26.9 (13:30) 19.4 (05:00) 23.1 16.39 (00:10) 11.94 (00:10) 0 0 0 0 0
11-06-2019 24.3 (14:50) 16.1 (06:50) 20.2 18.06 (23:20) 12.78 (23:10) 0 0 0 0 0
10-06-2019 25.6 (14:50) 17.1 (06:20) 21.4 9.72 (18:00) 7.22 (18:00) 0 0 0 0 0
09-06-2019 23.7 (12:40) 18.3 (00:00) 21 10.83 (16:40) 8.33 (16:40) 0 0 0 0 0
08-06-2019 30.4 (14:40) 17.3 (00:00) 23.8 18.61 (16:50) 14.17 (17:00) 0 0 0 0 0
07-06-2019 24.4 (16:10) 16 (00:00) 20.2 9.72 (15:50) 6.67 (17:50) 0 0 0 0 0
06-06-2019 25.3 (15:20) 16.1 (00:00) 20.7 9.17 (13:00) 7.22 (13:40) 0 0 0 0 0
05-06-2019 25.5 (14:40) 18.7 (00:00) 22.1 19.72 (13:10) 13.89 (12:40) 0 0 0 0 0
04-06-2019 24.2 (14:50) 16 (00:00) 20.1 8.89 (14:00) 6.39 (14:10) 0 0 0 0 0
03-06-2019 23.6 (15:30) 15.8 (00:00) 19.7 5.83 (12:30) 4.17 (13:40) 0 0 0 0 0
02-06-2019 29.4 (11:40) 18 (00:00) 23.7 9.72 (14:00) 7.5 (14:10) 0 0 0 0 0
01-06-2019 30.4 (15:20) 17.5 (00:00) 23.9 15.28 (14:30) 11.39 (15:00) 0 0 0 0 0
31-05-2019 29.3 (16:40) 16.1 (00:00) 22.7 15.28 (13:20) 11.67 (14:00) 0 0 0 0 0
30-05-2019 27.3 (14:10) 17.1 (00:00) 22.2 16.39 (15:00) 9.44 (12:20) 0 0 0 0 0
29-05-2019 27.6 (14:40) 19.8 (00:00) 23.7 13.89 (12:10) 10 (10:00) 0 0 0 0 0
28-05-2019 28.1 (16:40) 17.4 (00:00) 22.8 7.78 (23:20) 5.83 (23:40) 0 0 0 0 0
27-05-2019 23.9 (15:50) 16.3 (00:00) 20.1 6.67 (17:00) 4.72 (16:30) 0 0 0 0 0
26-05-2019 22.9 (14:40) 15.9 (00:00) 19.4 9.72 (13:40) 7.22 (13:40) 0 0 0 0 0
25-05-2019 23.9 (10:30) 17.5 (00:00) 20.7 11.39 (01:20) 7.78 (00:10) 0 0 0 0 0
24-05-2019 23.5 (19:20) 16.1 (00:00) 19.8 15.28 (21:10) 11.11 (22:10) 0 0 0 0 0
23-05-2019 26.7 (10:30) 16.7 (00:00) 21.7 8.89 (07:40) 6.67 (08:10) 0 0 0 0 0
22-05-2019 24.2 (13:20) 15.5 (00:00) 19.9 8.33 (13:50) 5.83 (13:50) 0 0 0 0 0
21-05-2019 22.6 (14:10) 16.9 (05:20) 19.8 7.78 (13:30) 5.83 (14:20) 0 0 0 0 0
20-05-2019 22 (09:40) 15.4 (05:30) 18.7 6.67 (09:40) 4.44 (10:30) 0 0 0 0 0
19-05-2019 21.7 (14:30) 15.8 (00:00) 18.8 11.39 (13:20) 8.33 (13:30) 0 0 0 0 0
18-05-2019 23.5 (16:20) 14.4 (00:00) 18.9 14.44 (18:40) 10.83 (17:40) 0 0 0 0 0
17-05-2019 24.2 (12:00) 16.9 (00:00) 20.6 11.39 (12:40) 8.33 (12:40) 0 0 0 0 0

Gráficas

Temp. máximas Temp. mínimas Temp. medias Precipitaciones Rachas de viento máximas Velocidades máximas media en intervalos de 10 minutos

Datos horarios

Fecha y hora oficial Temperatura (ºC) Velocidad del viento (km/h) Dirección del viento Racha (km/h) Dirección de racha Precipitación (mm) Presión (hPa) Tendencia (hPa) Humedad (%)
2019-06-15 23:00:00 19.4 9 Este 11 Este 0 1014.8 1.1 78
2019-06-15 22:00:00 20.1 5 Sudoeste 17 Sudoeste 0 1014.1 0.5 78
2019-06-15 21:00:00 21.2 13 Sudoeste 18 Sur 0 1014.1 0.1 73
2019-06-15 20:00:00 21.9 13 Sudoeste 24 Sudoeste 0 1013.7 -0.8 70
2019-06-15 19:00:00 22.5 18 Sudoeste 26 Sudoeste 0 1013.6 -1.4 65
2019-06-15 18:00:00 22.8 17 Sudoeste 24 Sudoeste 0 1014 -1.4 67
2019-06-15 17:00:00 22.7 18 Sudoeste 24 Sudoeste 0 1014.5 -1.3 64
2019-06-15 16:00:00 22.7 18 Sudoeste 24 Sudoeste 0 1015 -0.8 63
2019-06-15 15:00:00 22.6 17 Sur 24 Sur 0 1015.4 0 64
2019-06-15 14:00:00 22.7 15 Sur 22 Sur 0 1015.8 0.7 65
2019-06-15 13:00:00 22.6 15 Sur 21 Sur 0 1015.8 0.8 66
2019-06-15 12:00:00 21.8 12 Sur 17 Sur 0 1015.4 0.6 70
2019-06-15 11:00:00 21.1 11 Sur 15 Sur 0 1015.1 0.8 72
2019-06-15 10:00:00 20.3 9 Sur 15 Sur 0 1015 1.1 73
2019-06-15 09:00:00 20 5 Sur 9 Este 0 1014.8 1.6 73
2019-06-15 08:00:00 17.5 8 Nordeste 9 Nordeste 0 1014.3 1.4 81
2019-06-15 07:00:00 16 7 Nordeste 17 Nordeste 0 1013.9 1.3 87
2019-06-15 06:00:00 15.8 11 Nordeste 17 Este 0 1013.2 0.9 88
2019-06-15 05:00:00 16.2 10 Este 13 Nordeste 0 1012.9 0.3 87
2019-06-15 04:00:00 16.2 9 Nordeste 13 Nordeste 0 1012.6 -0.2 84
2019-06-15 03:00:00 17.2 5 Nordeste 28 Oeste 0 1012.3 0 82
2019-06-15 02:00:00 18.3 24 Sudoeste 41 Sudoeste 0 1012.6 0.7 82
2019-06-15 01:00:00 18.8 28 Sudoeste 41 Sudoeste 0 1012.8 1.8 78
2019-06-15 00:00:00 19.3 23 Sudoeste 37 Sudoeste 0 1012.3 1.7 71
2019-06-14 23:00:00 19.9 22 Sudoeste 42 Sudoeste 0 1011.9 1.4 66
2019-06-14 22:00:00 20.8 30 Sudoeste 46 Sudoeste 0 1011 0.8 65
2019-06-14 21:00:00 21.6 18 Sudoeste 45 Sudoeste 0 1010.6 -0.4 56
2019-06-14 20:00:00 22.7 21 Oeste 54 Oeste 0 1010.5 -0.4 51
2019-06-14 19:00:00 22.8 35 Sudoeste 52 Sudoeste 0 1010.2 -1 55
2019-06-14 18:00:00 23 27 Sudoeste 48 Sudoeste 0 1011 -0.3 59
2019-06-14 17:00:00 23 37 Sudoeste 55 Sudoeste 0 1010.9 -0.7 57
2019-06-14 16:00:00 23.3 33 Sudoeste 58 Sudoeste 0 1011.2 0 59
2019-06-14 15:00:00 24.1 39 Sudoeste 63 Sudoeste 0 1011.3 0.1 54
2019-06-14 14:00:00 24.6 45 Sudoeste 71 Sudoeste 0 1011.6 0.4 45
2019-06-14 13:00:00 22.5 49 Sudoeste 65 Sudoeste 0 1011.2 0.6 58
2019-06-14 12:00:00 22.3 41 Sudoeste 58 Sudoeste 0 1011.2 1.1 63
2019-06-14 11:00:00 22.3 35 Sudoeste 46 Sudoeste 0 1011.2 1.9 67
2019-06-14 10:00:00 21.8 25 Sudoeste 37 Sudoeste 0 1010.6 1.5 73
2019-06-14 09:00:00 20.8 24 Sudoeste 42 Sudoeste 0 1010.1 1.3 82
2019-06-14 08:00:00 20 31 Sudoeste 46 Sudoeste 0 1009.3 0.9 87
2019-06-14 07:00:00 19.9 26 Sudoeste 39 Oeste 0 1009.1 1 87
2019-06-14 06:00:00 20.1 26 Sudoeste 39 Sudoeste 0 1008.8 1.2 86
2019-06-14 05:00:00 19.8 21 Sudoeste 32 Sudoeste 0 1008.4 -1.7 89
2019-06-14 04:00:00 20.3 17 Sur 26 Sur 0 1008.1 -2.1 84
2019-06-14 03:00:00 20.4 9 Noroeste 22 Oeste 0 1007.6 -2.4 85
2019-06-14 02:00:00 20 12 Sur 18 Sudoeste 0 1010.1 0.3 90
2019-06-14 01:00:00 19.7 13 Noroeste 18 Noroeste 0 1010.2 1.8 89
2019-06-14 00:00:00 19.8 12 Sudoeste 21 Sudoeste 0 1010 1.9 93
2019-06-13 23:00:00 21.3 10 Sudoeste 21 Sur 0 1009.8 2.8 81
2019-06-13 22:00:00 22 13 Sudoeste 21 Sudoeste 0 1008.4 2.2 73
2019-06-13 21:00:00 22.2 6 Sur 24 Sur 0 1008.1 2.1 70
2019-06-13 20:00:00 22.5 15 Sur 30 Sudoeste 0 1007 1 74
2019-06-13 19:00:00 23.7 21 Sur 35 Sudoeste 0 1006.2 0 68
2019-06-13 18:00:00 25.9 22 Sudeste 37 Sudeste 0 1006 -0.3 53
2019-06-13 17:00:00 27.9 21 Este 42 Nordeste 0 1006 -0.2 47
2019-06-13 16:00:00 28.2 30 Este 46 Nordeste 0 1006.2 -0.2 46
2019-06-13 15:00:00 28.4 31 Este 54 Este 0 1006.3 -0.5 46
2019-06-13 14:00:00 28.5 36 Este 52 Este 0 1006.2 -1.1 45
2019-06-13 13:00:00 29 35 Este 48 Este 0 1006.4 -1.6 41
2019-06-13 12:00:00 27.8 33 Este 46 Este 0 1006.8 -1.4 42
2019-06-13 11:00:00 26.8 32 Este 42 Este 0 1007.3 -0.7 44
2019-06-13 10:00:00 24.8 13 Nordeste 33 Nordeste 0 1008 -0.1 50
2019-06-13 09:00:00 23.2 16 Noroeste 22 Noroeste 0 1008.2 0.5 54
2019-06-13 08:00:00 20.8 7 Norte 22 Norte 0 1008 0.3 62
2019-06-13 07:00:00 20 9 Norte 18 Norte 0 1008.1 0.1 67
2019-06-13 06:00:00 19.3 5 Oeste 13 Nordeste 0 1007.7 -0.7 71
2019-06-13 05:00:00 20.3 5 Sudoeste 18 Sudeste 0 1007.7 -1.7 67
2019-06-13 04:00:00 20.3 9 Sur 17 Nordeste 0 1008 -1.6 69
2019-06-13 03:00:00 20.4 7 Norte 18 Nordeste 0 1008.4 -1.5 69
2019-06-13 02:00:00 20.9 8 Este 30 Este 0 1009.4 -0.1 69
2019-06-13 01:00:00 20.7 16 Nordeste 26 Nordeste 0 1009.6 0.9 71
2019-06-13 00:00:00 20.6 20 Este 33 Este 0 1009.9 1.7 76
2019-06-12 23:00:00 20.6 26 Este 41 Este 0 1009.5 1.9 75
2019-06-12 22:00:00 20.9 35 Este 50 Nordeste 0 1008.7 1.1 73
2019-06-12 21:00:00 22.1 35 Este 50 Este 0 1008.2 -0.2 65
2019-06-12 20:00:00 23.7 37 Este 52 Este 0 1007.6 -1.4 58
2019-06-12 19:00:00 24.7 36 Este 52 Este 0 1007.6 -1.9 54
2019-06-12 18:00:00 25.8 34 Este 52 Este 0 1008.4 -1.2 47
2019-06-12 17:00:00 26.3 32 Este 52 Este 0 1009 -1 47
2019-06-12 16:00:00 25.8 32 Este 52 Este 0 1009.5 -0.9 48
2019-06-12 15:00:00 26.1 35 Este 50 Este 0 1009.6 -1.2 46
2019-06-12 14:00:00 26.4 32 Este 48 Este 0 1010 -1.1 45
2019-06-12 13:00:00 26.3 30 Este 48 Este 0 1010.4 -1 42
2019-06-12 12:00:00 25.1 26 Este 42 Nordeste 0 1010.8 -0.5 43
2019-06-12 11:00:00 24.2 25 Nordeste 42 Nordeste 0 1011.1 0.2 45
2019-06-12 10:00:00 23.2 26 Nordeste 37 Nordeste 0 1011.4 0.7 48
2019-06-12 09:00:00 21.9 24 Nordeste 37 Nordeste 0 1011.3 1.2 52
2019-06-12 08:00:00 20.3 19 Nordeste 28 Nordeste 0 1010.9 0.8 57
2019-06-12 07:00:00 19.6 18 Nordeste 42 Nordeste 0 1010.7 0.8 64
2019-06-12 06:00:00 19.5 32 Nordeste 45 Nordeste 0 1010.1 0.5 69
2019-06-12 05:00:00 19.5 24 Nordeste 45 Nordeste 0 1010.1 0.5 69
2019-06-12 04:00:00 19.9 32 Nordeste 50 Nordeste 0 1009.9 0.6 70
2019-06-12 03:00:00 19.7 29 Nordeste 52 Nordeste 0 1009.6 0.7 72
2019-06-12 02:00:00 20 33 Nordeste 58 Nordeste 0 1009.6 2.2 73
2019-06-12 01:00:00 20.7 39 Nordeste 59 Este 0 1009.3 3.2 74
2019-06-12 00:00:00 21.3 44 Nordeste 65 Nordeste 0 1008.9 3.7 74
2019-06-11 23:00:00 22.2 41 Nordeste 55 Nordeste 0 1007.4 2.2 61
2019-06-11 22:00:00 20.3 10 Este 13 Este 0 1006.1 1.3 75
2019-06-11 21:00:00 20.9 8 Sudoeste 21 Sur 0 1005.2 0.4 74
2019-06-11 20:00:00 21.4 16 Sur 30 Sur 0 1005.2 0.3 71
2019-06-11 19:00:00 22 20 Sur 28 Sur 0 1004.8 -0.5 71
2019-06-11 18:00:00 22.2 15 Sudeste 30 Sur 0 1004.8 -0.7 70
2019-06-11 17:00:00 22.5 23 Sur 35 Sur 0 1004.9 -1.2 67
2019-06-11 16:00:00 22.3 28 Sur 37 Sur 0 1005.3 -1.1 68
2019-06-11 15:00:00 23.7 22 Sudoeste 28 Sudoeste 0 1005.5 -1.2 63
2019-06-11 14:00:00 22.4 15 Sur 21 Sudeste 0 1006.1 -0.9 69
2019-06-11 13:00:00 22 12 Sur 18 Sudeste 0 1006.4 -0.8 71
2019-06-11 12:00:00 22.1 12 Sudeste 18 Sudeste 0 1006.7 -0.6 70
2019-06-11 11:00:00 21.5 10 Sudeste 17 Sudeste 0 1007 -0.3 72
2019-06-11 10:00:00 21.2 5 Sudoeste 11 Sudoeste 0 1007.2 0.3 71
2019-06-11 09:00:00 20.4 8 Sur 11 Sur 0 1007.3 0.5 77
2019-06-11 08:00:00 18 0 Calma 8 Norte 0 1007.3 0.4 85
2019-06-11 07:00:00 16.4 6 Norte 9 Norte 0 1006.9 -0.7 88
2019-06-11 06:00:00 16.4 2 Oeste 13 Nordeste 0 1006.8 -1.4 87
2019-06-11 05:00:00 17.1 11 Nordeste 13 Nordeste 0 1006.9 -2.1 86
2019-06-11 04:00:00 17.7 4 Nordeste 9 Nordeste 0 1007.6 -2.1 86
2019-06-11 03:00:00 17.8 9 Norte 11 Norte 0 1008.2 -1.5 85
2019-06-11 02:00:00 17.8 6 Nordeste 13 Este 0 1009 -0.8 87
2019-06-11 01:00:00 18.2 10 Este 13 Este 0 1009.7 0.4 86
2019-06-11 00:00:00 19.2 6 Sur 13 Sudoeste 0 1009.7 0.7 79
2019-06-10 23:00:00 19.6 10 Sudoeste 17 Sudoeste 0 1009.8 1 79
2019-06-10 22:00:00 19.7 11 Sur 18 Sudoeste 0 1009.3 0.6 83
2019-06-10 21:00:00 21.4 12 Sudoeste 21 Sudoeste 0 1009 -0.2 75
2019-06-10 20:00:00 22.1 16 Sudoeste 30 Sudoeste 0 1008.8 -1 73
2019-06-10 19:00:00 23.3 22 Sudoeste 33 Sudoeste 0 1008.7 -1.3 67
2019-06-10 18:00:00 24.1 26 Sudoeste 35 Sudoeste 0 1009.2 -1.4 63
2019-06-10 17:00:00 24.6 22 Sudoeste 32 Sudoeste 0 1009.8 -1.4 62
2019-06-10 16:00:00 25.1 22 Sudoeste 33 Sudoeste 0 1010 -1.4 61
2019-06-10 15:00:00 25.1 20 Sudoeste 30 Sudoeste 0 1010.6 -1 59
2019-06-10 14:00:00 24 16 Sur 21 Sur 0 1011.2 -0.6 67
2019-06-10 13:00:00 23.1 14 Sur 18 Sur 0 1011.4 -0.3 70
2019-06-10 12:00:00 22.6 12 Sur 17 Sur 0 1011.6 0.4 71
2019-06-10 11:00:00 22.2 12 Sur 17 Sudeste 0 1011.8 0.9 72
2019-06-10 10:00:00 22.9 11 Sudeste 17 Sudeste 0 1011.7 0.9 68
2019-06-10 09:00:00 21 11 Este 18 Este 0 1011.2 0.8 72
2019-06-10 08:00:00 17.5 12 Este 17 Sudeste 0 1010.9 0.4 86
2019-06-10 07:00:00 17.4 7 Nordeste 15 Oeste 0 1010.8 0.2 88
2019-06-10 06:00:00 17.4 13 Sudoeste 15 Sudoeste 0 1010.4 -0.4 87
2019-06-10 05:00:00 17.4 5 Oeste 8 Oeste 0 1010.5 -0.8 82
2019-06-10 04:00:00 17.5 2 Noroeste 8 Nordeste 0 1010.6 -1 80
2019-06-10 03:00:00 18.7 2 Norte 13 Nordeste 0 1010.8 -0.9 76
2019-06-10 02:00:00 18.8 9 Nordeste 15 Nordeste 0 1011.3 -0.8 82
2019-06-10 01:00:00 19.2 12 Nordeste 17 Nordeste 0 1011.6 -0.1 81
2019-06-10 00:00:00 19.8 9 Nordeste 11 Nordeste 0 1011.7 0.3 81
2019-06-09 23:00:00 20.4 8 Sudoeste 13 Sur 0 1012.1 0.4 79
2019-06-09 22:00:00 20.5 10 Sur 22 Sur 0 1011.7 -0.3 77
2019-06-09 21:00:00 21 20 Sur 28 Sur 0 1011.4 -1 75
2019-06-09 20:00:00 21.6 19 Sur 30 Sur 0 1011.7 -1 76
2019-06-09 19:00:00 22.3 22 Sur 32 Sur 0 1012 -1.3 76
2019-06-09 18:00:00 22.4 27 Sur 37 Sur 0 1012.4 -1.3 79
2019-06-09 17:00:00 22.9 26 Sur 39 Sur 0 1012.7 -1.6 76
2019-06-09 16:00:00 23.3 22 Sur 33 Sur 0 1013.3 -1.4 75
2019-06-09 15:00:00 23.2 23 Sur 33 Sur 0 1013.7 -1 75
2019-06-09 14:00:00 23.1 23 Sur 32 Sur 0 1014.3 -0.4 74
2019-06-09 13:00:00 22.5 21 Sur 32 Sudoeste 0 1014.7 -0.3 76
2019-06-09 12:00:00 22.8 19 Sur 26 Sur 0 1014.7 -0.2 73
2019-06-09 11:00:00 22 15 Sudoeste 21 Sur 0 1014.7 -0.1 78
2019-06-09 10:00:00 21.3 14 Sur 21 Sudoeste 0 1015 0.3 81
2019-06-09 09:00:00 21.1 5 Sur 11 Sur 0 1014.9 0 77
2019-06-09 08:00:00 19.8 4 Este 9 Sudoeste 0 1014.8 0.1 82
2019-06-09 07:00:00 18.5 0 Calma 5 Sudoeste 0 1014.7 -0.4 83
2019-06-09 06:00:00 18.8 0 Calma 8 Oeste 0 1014.9 -0.7 81
2019-06-09 05:00:00 19.3 4 Oeste 9 Oeste 0 1014.7 -1.6 80
2019-06-09 04:00:00 20.2 5 Noroeste 9 Norte 0 1015.1 -1.2 75
2019-06-09 03:00:00 19.6 5 Nordeste 9 Este 0 1015.6 -0.7 78
2019-06-09 02:00:00 20.4 3 Este 18 Nordeste 0 1016.3 0.4 71
2019-06-09 01:00:00 20.6 12 Nordeste 28 Este 0 1016.3 1.1 76
2019-06-09 00:00:00 21.1 19 Este 41 Este 0 1016.3 1.9 76
2019-06-08 23:00:00 21.3 29 Este 42 Este 0 1015.9 1.9 76
2019-06-08 22:00:00 21.9 28 Este 48 Este 0 1015.2 1.4 73
2019-06-08 21:00:00 23.1 36 Este 54 Nordeste 0 1014.4 0.7 66
2019-06-08 20:00:00 24.5 42 Este 59 Nordeste 0 1014 0.2 59
2019-06-08 19:00:00 25.8 45 Nordeste 63 Nordeste 0 1013.8 -0.2 55
2019-06-08 18:00:00 27.2 46 Este 65 Este 0 1013.7 -0.7 49
2019-06-08 17:00:00 28.5 51 Este 67 Este 0 1013.8 -1.1 40
2019-06-08 16:00:00 29.3 44 Este 59 Este 0 1014 -1.3 41
2019-06-08 15:00:00 29.6 41 Este 65 Este 0 1014.4 -1.2 37
2019-06-08 14:00:00 29.4 41 Este 58 Este 0 1014.9 -0.8 36
2019-06-08 13:00:00 29.2 34 Nordeste 54 Este 0 1015.3 -0.3 34
2019-06-08 12:00:00 29.4 34 Este 48 Este 0 1015.6 0.2 28
2019-06-08 11:00:00 28.5 33 Este 50 Este 0 1015.7 0.5 27
2019-06-08 10:00:00 27.7 22 Nordeste 30 Nordeste 0 1015.6 1.3 23
2019-06-08 09:00:00 23.4 9 Nordeste 15 Nordeste 0 1015.4 1 45
2019-06-08 08:00:00 20.1 0 Calma 15 Nordeste 0 1015.2 0.5 64
2019-06-08 07:00:00 19.5 12 Norte 24 Noroeste 0 1014.3 -0.8 63
2019-06-08 06:00:00 19.3 8 Norte 18 Nordeste 0 1014.4 -1.1 64
2019-06-08 05:00:00 18.4 5 Este 11 Norte 0 1014.7 -0.8 78
2019-06-08 04:00:00 17.6 7 Nordeste 11 Nordeste 0 1015.1 -0.1 81
2019-06-08 03:00:00 18.4 3 Norte 8 Norte 0 1015.5 0.9 81
2019-06-08 02:00:00 18.6 5 Norte 8 Norte 0 1015.5 1.8 82
2019-06-08 01:00:00 18.7 4 Este 11 Este 0 1015.2 2.2 80
2019-06-08 00:00:00 19.1 11 Este 17 Este 0 1014.6 2.1 81
2019-06-07 23:00:00 19.6 9 Este 13 Sudeste 0 1013.7 1.4 80
2019-06-07 22:00:00 20.1 10 Sudeste 15 Sudeste 0 1013 1.1 78
2019-06-07 21:00:00 21.2 9 Sudeste 18 Sudoeste 0 1012.5 0.7 74
2019-06-07 20:00:00 22.3 14 Sudoeste 28 Sudoeste 0 1012.3 0.4 72
2019-06-07 19:00:00 22.5 21 Sudoeste 33 Sur 0 1011.9 -- 74
2019-06-07 18:00:00 23.2 23 Sur 32 Sur 0 1011.8 -0.8 71
2019-06-07 17:00:00 23.7 22 Sudoeste 32 Sudoeste 0 1011.9 -1.1 69
2019-06-07 16:00:00 -- -- -- -- -- -- -- -- --
2019-06-07 15:00:00 23.2 19 Sur 30 Sudoeste 0 1012.6 0.3 68
2019-06-07 14:00:00 23.7 17 Sudoeste 26 Sudoeste 0 1013 1.1 63
2019-06-07 13:00:00 22.9 15 Sur 22 Sur 0 1012.8 1.4 70
2019-06-07 12:00:00 22.3 12 Sur 18 Sur 0 1012.3 1.3 69
2019-06-07 11:00:00 21.9 12 Sudeste 17 Sudeste 0 1011.9 1.5 68
2019-06-07 10:00:00 21.6 9 Sur 13 Sur 0 1011.4 1.8 66
2019-06-07 09:00:00 19.9 2 Oeste 11 Nordeste 0 1011 2.2 71
2019-06-07 08:00:00 17.5 8 Este 11 Este 0 1010.4 1.5 80
2019-06-07 07:00:00 16.4 4 Norte 13 Noroeste 0 1009.6 0.7 83
2019-06-07 06:00:00 17 7 Noroeste 28 Sudoeste 0 1008.8 0 80
2019-06-07 05:00:00 16.5 3 Nordeste 11 Sudoeste 0 1008.9 0.2 85
2019-06-07 04:00:00 17 7 Norte 13 Norte 0 1008.9 -0.2 82
2019-06-07 03:00:00 17.5 5 Nordeste 13 Sudoeste 0 1008.8 -0.3 82
2019-06-07 02:00:00 18.6 11 Sudoeste 17 Sudoeste 0 1008.7 0 82
2019-06-07 01:00:00 18.9 4 Sur 18 Sur 0 1009.1 1.6 78
2019-06-07 00:00:00 19.4 13 Sur 22 Sur 0 1009.1 2 80
2019-06-06 23:00:00 19.7 16 Sur 26 Sur 0 1008.7 1.6 75
2019-06-06 22:00:00 20.8 15 Sur 26 Sudoeste 0 1007.5 0 64
2019-06-06 21:00:00 22.4 9 Sur 18 Sudoeste 0 1007.1 -1.1 59
2019-06-06 20:00:00 22.6 10 Sudoeste 18 Sudoeste 0 1007.1 -1.5 62
2019-06-06 19:00:00 22.8 14 Sudoeste 24 Sudoeste 0 1007.5 -1.9 62
2019-06-06 18:00:00 23 18 Sudoeste 26 Sudoeste 0 1008.2 -2 60
2019-06-06 17:00:00 23.5 16 Sur 22 Sudoeste 0 1008.6 -1.9 62
2019-06-06 16:00:00 24 16 Sudoeste 24 Sudoeste 0 1009.4 -1.3 53
2019-06-06 15:00:00 23.7 19 Sudoeste 32 Sudoeste 0 1010.2 -0.3 63
2019-06-06 14:00:00 23.1 24 Sudoeste 33 Sudoeste 0 1010.5 0 67
2019-06-06 13:00:00 22.8 24 Sudoeste 33 Sudoeste 0 1010.7 0 70
2019-06-06 12:00:00 22 18 Sur 30 Sudoeste 0 1010.5 -0.1 69
2019-06-06 11:00:00 21.6 22 Sudoeste 26 Sudoeste 0 1010.5 0 72
2019-06-06 10:00:00 21.4 9 Sur 13 Sudeste 0 1010.7 0.5 72
2019-06-06 09:00:00 21.2 5 Sudeste 9 Sudeste 0 1010.6 0.9 47
2019-06-06 08:00:00 18.8 3 Este 13 Nordeste 0 1010.5 0.8 59
2019-06-06 07:00:00 16.4 9 Nordeste 13 Nordeste 0 1010.2 0.2 79
2019-06-06 06:00:00 16.3 8 Nordeste 13 Nordeste 0 1009.7 -0.6 68
2019-06-06 05:00:00 16.7 10 Nordeste 13 Nordeste 0 1009.7 -0.8 79
2019-06-06 04:00:00 17.1 9 Nordeste 13 Nordeste 0 1010 -0.6 83
2019-06-06 03:00:00 17.4 10 Nordeste 15 Nordeste 0 1010.3 -0.1 85
2019-06-06 02:00:00 17.7 10 Nordeste 13 Nordeste 0 1010.5 0.7 82
2019-06-06 01:00:00 17.9 10 Este 13 Este 0 1010.6 1.3 82
2019-06-06 00:00:00 18.7 7 Este 11 Este 0 1010.4 1.5 80
2019-06-05 23:00:00 19.5 3 Este 15 Sudoeste 0 1009.8 1.3 73
2019-06-05 22:00:00 20.2 12 Sudoeste 17 Sudoeste 0 1009.3 1.1 74
2019-06-05 21:00:00 20.8 12 Sudoeste 28 Sudoeste 0 1008.9 0.8 71
2019-06-05 20:00:00 21.4 21 Sudoeste 42 Sudoeste 0 1008.5 0.8 66
2019-06-05 19:00:00 22.3 27 Sudoeste 48 Sudoeste 0 1008.2 -- 62
2019-06-05 18:00:00 22.8 36 Sudoeste 54 Sudoeste 0 1008.1 0.4 59
2019-06-05 17:00:00 23.6 38 Sudoeste 59 Sudoeste -- 1007.7 -0.3 53
2019-06-05 16:00:00 -- 45 Sudoeste 65 Sudoeste -- -- -- --
2019-06-05 15:00:00 24.6 49 Sudoeste 68 Sudoeste 0 1007.7 -0.1 45
2019-06-05 14:00:00 24.6 44 Sudoeste 71 Sudoeste 0 1008 0.3 42
2019-06-05 13:00:00 23.8 45 Sudoeste 68 Sudoeste 0 1008.1 0.6 47
2019-06-05 12:00:00 23.9 45 Sudoeste 63 Sudoeste 0 1007.8 1 49
2019-06-05 11:00:00 22.4 42 Sudoeste 63 Sudoeste 0 1007.7 1.4 68
2019-06-05 10:00:00 23 40 Sudoeste 58 Sudoeste 0 1007.5 2.1 62
2019-06-05 09:00:00 21.8 37 Sudoeste 54 Oeste 0 1006.8 2.1 72
2019-06-05 08:00:00 20.8 26 Sudoeste 42 Sudoeste 0 1006.3 1.5 80
2019-06-05 07:00:00 20.3 23 Sudoeste 39 Oeste 0 1005.4 0.2 79
2019-06-05 06:00:00 19.4 11 Noroeste 21 Oeste 0 1004.7 -0.9 86
2019-06-05 05:00:00 20.1 8 Oeste 30 Sudoeste 0 1004.8 -1.3 84
2019-06-05 04:00:00 19.4 0 Calma 13 Oeste 0 1005.2 -1.3 89
2019-06-05 03:00:00 20.4 12 Oeste 17 Sudoeste 0 1005.6 -0.9 90
2019-06-05 02:00:00 20.5 4 Nordeste 24 Oeste 0 1006.1 -0.4 85
2019-06-05 01:00:00 19.8 4 Oeste 13 Noroeste 0 1006.5 0.7 91
2019-06-05 00:00:00 20.5 8 Sudoeste 30 Sudoeste 0 1006.5 0.7 91
2019-06-04 23:00:00 21 23 Sur 32 Sudoeste 0 1006.5 0.4 89
2019-06-04 22:00:00 21 18 Sur 24 Sur 0 1005.8 -0.6 90
2019-06-04 21:00:00 21.7 13 Sur 26 Sur 0 1005.8 -1.4 82
2019-06-04 20:00:00 22.6 14 Sudeste 24 Sur 0 1006.1 -2.1 78
2019-06-04 19:00:00 22.9 11 Sur 18 Sur 0 1006.4 -2.4 73
2019-06-04 18:00:00 23.5 15 Sur 24 Sur 0 1007.2 -2.5 69
2019-06-04 17:00:00 23.6 14 Sur 28 Sur 0 1008.2 -2.3 70
2019-06-04 16:00:00 23.7 19 Sur 30 Sur 0 1008.8 -2.1 72
2019-06-04 15:00:00 24 22 Sur 32 Sudoeste 0 1009.7 -1.6 73
2019-06-04 14:00:00 23.9 23 Sur 32 Sudoeste 0 1010.5 -0.8 74
2019-06-04 13:00:00 23.4 13 Sur 18 Sur 0 1010.9 -0.3 75
2019-06-04 12:00:00 23.2 14 Sur 21 Sur 0 1011.3 0.1 74
2019-06-04 11:00:00 22.3 8 Sur 15 Sur 0 1011.3 0.4 77
2019-06-04 10:00:00 21.9 9 Sur 13 Sur 0 1011.2 0.5 74
2019-06-04 09:00:00 21.6 5 Sur 9 Este 0 1011.2 1.1 69
2019-06-04 08:00:00 18.8 6 Nordeste 9 Nordeste 0 1010.9 0.5 62
2019-06-04 07:00:00 16.2 3 Norte 5 Norte 0 1010.7 -0.1 75
2019-06-04 06:00:00 16.8 3 Nordeste 8 Nordeste 0 1010.1 -1.7 72
2019-06-04 05:00:00 16.5 3 Este 11 Noroeste 0 1010.4 -2.2 72
2019-06-04 04:00:00 17 5 Oeste 9 Oeste 0 1010.8 -2.2 69
2019-06-04 03:00:00 17.2 3 Norte 13 Noroeste 0 1011.8 -1.6 61
2019-06-04 02:00:00 18 5 Noroeste 11 Norte 0 1012.6 -0.7 55
2019-06-04 01:00:00 19.5 9 Norte 11 Norte 0 1013 0.2 54
2019-06-04 00:00:00 19.4 5 Noroeste 9 Sudoeste 0 1013.4 0.7 75
2019-06-03 23:00:00 20.3 4 Sudoeste 9 Sudoeste 0 1013.3 0.2 75
2019-06-03 22:00:00 20.8 6 Sudoeste 8 Sudoeste 0 1012.8 -0.5 77
2019-06-03 21:00:00 22.4 2 Sur 9 Sudoeste 0 1012.7 -1.2 67
2019-06-03 20:00:00 22.7 6 Sudoeste 13 Sudoeste 0 1013.1 -1.2 65
2019-06-03 19:00:00 22.9 10 Sur 15 Sur 0 1013.3 -1.6 70
2019-06-03 18:00:00 22.5 10 Sur 18 Sudoeste 0 1013.9 -1.5 72
2019-06-03 17:00:00 22.7 12 Sudoeste 17 Sudoeste 0 1014.3 -1.6 73
2019-06-03 16:00:00 22.7 13 Sur 21 Sur 0 1014.9 -1.3 73
2019-06-03 15:00:00 22.9 14 Sur 21 Sur 0 1015.4 -0.8 73
2019-06-03 14:00:00 23.1 15 Sur 21 Sur 0 1015.9 -0.2 73
2019-06-03 13:00:00 22.7 14 Sur 21 Sur 0 1016.2 0.1 76
2019-06-03 12:00:00 22.6 13 Sur 18 Sur 0 1016.2 0.4 74
2019-06-03 11:00:00 22.3 13 Sur 17 Sur 0 1016.1 0.7 66
2019-06-03 10:00:00 22.4 6 Sur 11 Sur 0 1016.1 0.9 62
2019-06-03 09:00:00 21.6 2 Sudeste 9 Norte 0 1015.8 0.9 58
2019-06-03 08:00:00 18.4 8 Norte 13 Norte 0 1015.4 0.2 59
2019-06-03 07:00:00 16.1 6 Norte 13 Noroeste 0 1015.2 -0.2 59
2019-06-03 06:00:00 16.9 6 Norte 11 Norte 0 1014.9 -1.4 63
2019-06-03 05:00:00 16.4 2 Sudoeste 8 Norte 0 1015.2 -1.6 75
2019-06-03 04:00:00 17.2 7 Norte 9 Norte 0 1015.4 -1.7 77
2019-06-03 03:00:00 18 5 Norte 9 Norte 0 1016.3 -0.7 83
2019-06-03 02:00:00 18.6 3 Noroeste 8 Sudoeste 0 1016.8 0.4 86
2019-06-03 01:00:00 19.4 6 Oeste 17 Oeste 0 1017.1 1.5 89
2019-06-03 00:00:00 20 13 Sudoeste 17 Oeste 0 1017 1.8 86
2019-06-02 23:00:00 20.3 9 Sudoeste 13 Sudoeste 0 1016.4 1.3 76
2019-06-02 22:00:00 20.9 6 Sudoeste 13 Sudoeste 0 1015.6 0.3 70
2019-06-02 21:00:00 21.7 11 Sudoeste 15 Sudoeste 0 1015.2 -0.5 70
2019-06-02 20:00:00 22.8 13 Sudoeste 18 Sudoeste 0 1015.1 -0.9 64
2019-06-02 19:00:00 23.1 14 Sudoeste 24 Sudoeste 0 1015.3 -1 63
2019-06-02 18:00:00 23.7 17 Sudoeste 28 Sudoeste 0 1015.7 -0.5 60
2019-06-02 17:00:00 24.4 21 Sudoeste 32 Sur 0 1016 -0.4 54
2019-06-02 16:00:00 25 21 Sudoeste 35 Sudoeste 0 1016.3 -0.5 54
2019-06-02 15:00:00 25.5 24 Sudoeste 33 Sudoeste 0 1016.2 -0.7 44
2019-06-02 14:00:00 26 27 Sudoeste 35 Sudoeste 0 1016.4 -0.4 42
2019-06-02 13:00:00 25.6 23 Sudoeste 30 Sudoeste 0 1016.8 -0.1 44
2019-06-02 12:00:00 24.5 21 Sudoeste 33 Sudoeste 0 1016.9 0 60
2019-06-02 11:00:00 26.1 9 Sur 28 Este 0 1016.8 0.1 31
2019-06-02 10:00:00 24.8 5 Oeste 24 Norte 0 1016.9 0.5 27
2019-06-02 09:00:00 21.7 12 Noroeste 22 Norte 0 1016.9 0.6 35
2019-06-02 08:00:00 19.4 17 Norte 30 Noroeste 0 1016.7 0.1 40
2019-06-02 07:00:00 18.8 21 Noroeste 30 Noroeste 0 1016.4 -0.6 41
2019-06-02 06:00:00 18.1 13 Norte 24 Noroeste 0 1016.3 -1 44
2019-06-02 05:00:00 18.8 16 Norte 26 Norte 0 1016.6 -1.1 43
2019-06-02 04:00:00 19.4 14 Norte 22 Noroeste 0 1017 -0.8 42
2019-06-02 03:00:00 20.1 9 Norte 21 Norte 0 1017.3 -0.5 39
2019-06-02 02:00:00 20.2 9 Norte 15 Norte 0 1017.7 0.1 39
2019-06-02 01:00:00 20.7 8 Nordeste 22 Este 0 1017.8 1.2 37
2019-06-02 00:00:00 21.6 16 Este 24 Este 0 1017.8 1.3 37
2019-06-01 23:00:00 21.1 11 Este 30 Este 0 1017.6 1.7 39
2019-06-01 22:00:00 22.6 23 Este 41 Este 0 1016.6 0.7 37
2019-06-01 21:00:00 24.5 31 Este 45 Este 0 1016.5 0.6 31
2019-06-01 20:00:00 26.1 35 Este 48 Este 0 1015.9 -0.3 27
2019-06-01 19:00:00 27.9 31 Este 46 Este 0 1015.9 -0.7 25
2019-06-01 18:00:00 28.8 33 Este 50 Este 0 1015.9 -1 24
2019-06-01 17:00:00 29.5 33 Este 52 Este 0 1016.2 -1.4 23
2019-06-01 16:00:00 29.7 38 Este 55 Nordeste 0 1016.6 -1.5 21
2019-06-01 15:00:00 29.7 41 Este 55 Nordeste 0 1016.9 -1.2 20
2019-06-01 14:00:00 29.3 34 Este 50 Este 0 1017.6 -0.7 20
2019-06-01 13:00:00 29.1 33 Este 50 Este 0 1018.1 -0.4 21
2019-06-01 12:00:00 27.9 36 Nordeste 50 Este 0 1018.1 -0.3 21
2019-06-01 11:00:00 26.7 37 Nordeste 50 Nordeste 0 1018.3 -0.1 22
2019-06-01 10:00:00 25.6 32 Nordeste 48 Este 0 1018.5 0.4 23
2019-06-01 09:00:00 24.4 22 Nordeste 37 Nordeste 0 1018.4 0.4 25
2019-06-01 08:00:00 20.1 14 Norte 22 Norte 0 1018.4 0.2 48
2019-06-01 07:00:00 17.7 11 Norte 17 Norte 0 1018.1 -0.1 60
2019-06-01 06:00:00 19 11 Norte 21 Nordeste 0 1018 -0.1 46
2019-06-01 05:00:00 19.1 12 Norte 21 Norte 0 1018.2 -0.3 57
2019-06-01 04:00:00 18.8 6 Norte 21 Nordeste 0 1018.2 -0.8 67
2019-06-01 03:00:00 19.1 16 Nordeste 30 Nordeste 0 1018.1 -0.8 72
2019-06-01 02:00:00 19.6 14 Nordeste 24 Nordeste 0 1018.5 0 64
2019-06-01 01:00:00 21.2 21 Nordeste 30 Nordeste 0 1019 1 50
2019-06-01 00:00:00 21.5 21 Este 26 Este 0 1018.9 1.1 48
2019-05-31 23:00:00 21.4 19 Este 35 Este 0 1018.5 1 50
2019-05-31 22:00:00 21.3 24 Este 42 Este 0 1018 0.7 56
2019-05-31 21:00:00 22.9 31 Este 46 Este 0 1017.8 0.3 52
2019-05-31 20:00:00 25.2 33 Este 48 Este 0 1017.5 -0.4 46
2019-05-31 19:00:00 26.9 36 Este 52 Este 0 1017.3 -1.3 39
2019-05-31 18:00:00 28 39 Este 54 Este 0 1017.5 -1.6 34
2019-05-31 17:00:00 28.3 38 Este 50 Este 0 1017.9 -1.8 32
2019-05-31 16:00:00 28.7 37 Este 52 Este 0 1018.6 -1.5 29
2019-05-31 15:00:00 28 39 Este 55 Este 0 1019.1 -1.2 30
2019-05-31 14:00:00 27.2 42 Este 55 Este 0 1019.7 -0.6 31
2019-05-31 13:00:00 27 38 Este 54 Este 0 1020.1 -0.1 31
2019-05-31 12:00:00 26.6 36 Este 50 Este 0 1020.3 0.2 30
2019-05-31 11:00:00 25.9 32 Este 50 Este 0 1020.3 0.2 29
2019-05-31 10:00:00 24.7 29 Este 45 Este 0 1020.2 0.6 36
2019-05-31 09:00:00 22.4 4 Nordeste 15 Este 0 1020.1 0.5 42
2019-05-31 08:00:00 19.3 9 Nordeste 21 Norte 0 1020.1 0.2 54
2019-05-31 07:00:00 17.8 10 Norte 18 Noroeste 0 1019.6 -0.3 63
2019-05-31 06:00:00 16.9 9 Norte 18 Este 0 1019.6 -1 64
2019-05-31 05:00:00 18.6 9 Nordeste 21 Norte 0 1019.9 -1.5 58
2019-05-31 04:00:00 18.4 9 Norte 24 Norte 0 1019.9 -1.8 67
2019-05-31 03:00:00 18.8 13 Norte 21 Noroeste 0 1020.6 -1.3 64
2019-05-31 02:00:00 19.2 9 Norte 22 Norte 0 1021.4 0.1 63
2019-05-31 01:00:00 19 12 Nordeste 17 Norte 0 1021.7 1 65
2019-05-31 00:00:00 19.3 10 Nordeste 30 Nordeste 0 1021.9 1.6 66
2019-05-30 23:00:00 20 23 Nordeste 33 Este 0 1021.3 1.2 59
2019-05-30 22:00:00 20.4 25 Este 41 Este 0 1020.7 0.6 61
2019-05-30 21:00:00 21.9 30 Este 42 Este 0 1020.3 0.2 54
2019-05-30 20:00:00 23.7 32 Este 45 Nordeste 0 1020.1 -0.4 46
2019-05-30 19:00:00 25.5 29 Este 42 Este 0 1020.1 -0.7 40
2019-05-30 18:00:00 26.5 32 Este 45 Este 0 1020.1 -1 32
2019-05-30 17:00:00 26.9 32 Este 48 Este 0 1020.5 -0.6 32
2019-05-30 16:00:00 27 31 Este 45 Este 0 1020.8 -0.6 32
2019-05-30 15:00:00 26.5 32 Este 59 Este 0 1021.1 -0.5 35
2019-05-30 14:00:00 26.5 32 Este 48 Este 0 1021.1 -0.7 34
2019-05-30 13:00:00 25.8 32 Este 48 Este 0 1021.4 -0.2 34
2019-05-30 12:00:00 25.4 32 Este 50 Este 0 1021.6 0.4 37
2019-05-30 11:00:00 24.4 28 Este 45 Este 0 1021.8 0.7 41
2019-05-30 10:00:00 23 32 Este 42 Este 0 1021.6 1 45
2019-05-30 09:00:00 21.9 17 Nordeste 28 Nordeste 0 1021.2 0.9 49
2019-05-30 08:00:00 18.9 0 Calma 13 Noroeste 0 1021.1 0.9 56
2019-05-30 07:00:00 17.5 10 Norte 22 Norte 0 1020.6 0.3 61
2019-05-30 06:00:00 17.7 11 Norte 24 Noroeste 0 1020.3 -0.1 62
2019-05-30 05:00:00 18.6 12 Norte 28 Nordeste 0 1020.2 -0.3 60
2019-05-30 04:00:00 19.6 17 Nordeste 35 Nordeste 0 1020.3 0.1 52
2019-05-30 03:00:00 18.7 19 Nordeste 30 Nordeste 0 1020.4 0.3 68
2019-05-30 02:00:00 19 23 Este 35 Nordeste 0 1020.5 0.9 64
2019-05-30 01:00:00 19.5 18 Este 30 Este 0 1020.2 1.7 53
2019-05-30 00:00:00 19.9 21 Este 30 Nordeste 0 1020.1 2.4 51
2019-05-29 23:00:00 20.1 22 Este 39 Nordeste 0 1019.6 2.5 52
2019-05-29 22:00:00 20.8 28 Nordeste 48 Este 0 1018.5 2 47
2019-05-29 21:00:00 21.7 33 Este 48 Este 0 1017.7 1.3 48
2019-05-29 20:00:00 23.2 31 Este 42 Este 0 1017.1 0.9 47
2019-05-29 19:00:00 24.2 30 Este 45 Este 0 1016.5 0.3 44
2019-05-29 18:00:00 25.2 28 Este 46 Este 0 1016.4 -- 43
2019-05-29 17:00:00 26.2 33 Este 48 Este 0 1016.2 0.1 41
2019-05-29 16:00:00 26.7 33 Este 48 Este 0 1016.2 -0.1 37
2019-05-29 15:00:00 27.5 34 Este 46 Este 0 -- -- 39
2019-05-29 14:00:00 26.7 33 Este 48 Este 0 1016.1 -0.4 43
2019-05-29 13:00:00 26.6 31 Este 50 Este 0 1016.3 -0.3 43
2019-05-29 12:00:00 26.6 35 Este 48 Nordeste 0 1016.3 0 39
2019-05-29 11:00:00 25.4 33 Nordeste 48 Este 0 1016.5 0.9 37
2019-05-29 10:00:00 24.2 36 Este 48 Este 0 1016.6 1.6 40
2019-05-29 09:00:00 23.4 25 Nordeste 42 Este 0 1016.3 1.8 41
2019-05-29 08:00:00 22.3 25 Nordeste 39 Nordeste 0 1015.6 1.5 42
2019-05-29 07:00:00 21.1 17 Nordeste 33 Nordeste 0 1015 1.1 53
2019-05-29 06:00:00 21.1 18 Nordeste 28 Nordeste 0 1014.5 1.1 62
2019-05-29 05:00:00 20.3 19 Nordeste 33 Este 0 1014.1 0.8 74
2019-05-29 04:00:00 21 28 Este 42 Este 0 1013.9 1 75
2019-05-29 03:00:00 20.9 25 Este 41 Este 0 1013.4 0.9 81
2019-05-29 02:00:00 20.9 21 Este 33 Este 0 1013.3 1.4 80
2019-05-29 01:00:00 21.2 20 Este 32 Este 0 1012.9 1.9 71
2019-05-29 00:00:00 21.3 19 Este 28 Este 0 1012.5 2.3 72
2019-05-28 23:00:00 21.8 17 Este 24 Este 0 1011.9 2.1 72
2019-05-28 22:00:00 22.6 4 Norte 11 Nordeste 0 1011 1.3 73
2019-05-28 21:00:00 23.2 4 Sur 9 Sur 0 1010.2 0.7 70
2019-05-28 20:00:00 23 9 Sudoeste 17 Sudoeste 0 1009.8 0.4 78
2019-05-28 19:00:00 25 10 Sur 18 Sur 0 1009.7 0.2 68
2019-05-28 18:00:00 25 13 Sur 18 Sur 0 1009.5 -0.2 71
2019-05-28 17:00:00 26.7 13 Sur 18 Sur 0 1009.4 -0.4 61
2019-05-28 16:00:00 26.9 14 Sur 18 Sur 0 1009.5 -0.4 57
2019-05-28 15:00:00 26.7 14 Sur 18 Sur 0 1009.7 -0.2 54
2019-05-28 14:00:00 26.2 10 Sur 18 Sur 0 1009.8 0.3 59
2019-05-28 13:00:00 25.7 13 Sur 18 Sur 0 1009.9 0.2 57
2019-05-28 12:00:00 24 13 Sur 17 Sur 0 1009.9 0.3 64
2019-05-28 11:00:00 24.3 12 Sur 15 Sur 0 1009.5 0.2 54
2019-05-28 10:00:00 24 6 Sur 15 Este 0 1009.7 1.1 53
2019-05-28 09:00:00 23.2 8 Este 13 Este 0 1009.6 1.7 54
2019-05-28 08:00:00 20.2 9 Nordeste 17 Nordeste 0 1009.3 1.4 63
2019-05-28 07:00:00 17.5 8 Nordeste 13 Nordeste 0 1008.6 0.6 77
2019-05-28 06:00:00 17.8 9 Nordeste 13 Norte 0 1007.9 -0.3 79
2019-05-28 05:00:00 17.7 9 Norte 11 Norte 0 1007.9 -0.7 82
2019-05-28 04:00:00 17.9 5 Noroeste 9 Norte 0 1008 -1 84
2019-05-28 03:00:00 18.5 4 Norte 5 Nordeste 0 1008.2 -0.8 81
2019-05-28 02:00:00 18.9 0 Calma 4 Norte 0 1008.6 -0.1 81
2019-05-28 01:00:00 19.5 0 Calma 11 Oeste 0 1009 0.4 76
2019-05-28 00:00:00 19.8 6 Sudoeste 13 Oeste 0 1009 0.6 74
2019-05-27 23:00:00 20 8 Sudoeste 11 Sudoeste 0 1008.7 0.3 81
2019-05-27 22:00:00 20.6 5 Sudoeste 9 Sudoeste 0 1008.6 0.1 73
2019-05-27 21:00:00 21 4 Sudoeste 8 Sur 0 1008.4 -0.4 70
2019-05-27 20:00:00 22 6 Sur 13 Sur 0 1008.4 -0.8 69
2019-05-27 19:00:00 22.6 9 Sur 17 Sur 0 1008.5 -1.1 67
2019-05-27 18:00:00 23 13 Sur 18 Sur 0 1008.8 -1.6 67
2019-05-27 17:00:00 23.3 16 Sur 24 Sur 0 1009.2 -1.6 66
2019-05-27 16:00:00 23.6 16 Sur 22 Sur 0 1009.6 -1.7 68
2019-05-27 15:00:00 22.8 11 Sur 17 Sur 0 1010.4 -1.1 71
2019-05-27 14:00:00 22.3 11 Sur 18 Sur 0 1010.8 -0.6 75
2019-05-27 13:00:00 22 10 Sudeste 17 Sur 0 1011.3 -0.2 73
2019-05-27 12:00:00 21.8 13 Sur 18 Sur 0 1011.5 0 73
2019-05-27 11:00:00 21.3 12 Sur 18 Sur 0 1011.4 -0.1 77
2019-05-27 10:00:00 20.6 8 Sur 13 Sur 0 1011.5 0.3 78
2019-05-27 09:00:00 19.8 5 Este 9 Este 0 1011.5 0.7 81
2019-05-27 08:00:00 17.7 3 Nordeste 9 Nordeste 0 1011.5 0.4 91
2019-05-27 07:00:00 16.4 7 Norte 15 Norte 0 1011.2 -0.3 96
2019-05-27 06:00:00 17.3 8 Norte 9 Norte 0 1010.8 -1.1 93
2019-05-27 05:00:00 18.3 4 Nordeste 8 Nordeste 0 1011.1 -1.3 93
2019-05-27 04:00:00 18.2 4 Norte 5 Norte 0 1011.5 -1 92
2019-05-27 03:00:00 17.4 4 Norte 8 Norte 0 1011.9 -1.1 89
2019-05-27 02:00:00 17.5 7 Nordeste 8 Este 0 1012.4 -0.6 87
2019-05-27 01:00:00 17.9 5 Este -- -- 0 1012.5 -0.1 86
2019-05-27 00:00:00 18.5 5 Norte 8 Noroeste 0 1013 0.4 88
2019-05-26 23:00:00 18.9 2 Sur 8 Sur 0 1013 0.6 87
2019-05-26 22:00:00 19.3 6 Sudoeste 8 Sudoeste 0 1012.6 0.1 84
2019-05-26 21:00:00 20.5 3 Sur 11 Sur 0 1012.6 -0.4 77
2019-05-26 20:00:00 21 5 Sur 13 Sur 0 1012.4 -1.1 77
2019-05-26 19:00:00 21.4 10 Sur 17 Sur 0 1012.5 -1.4 76
2019-05-26 18:00:00 22 13 Sur 26 Sur 0 1013 -1.2 74
2019-05-26 17:00:00 22.5 19 Sur 28 Sudoeste 0 1013.5 -1.3 72
2019-05-26 16:00:00 22.6 20 Sur 28 Sur 0 1013.9 -1.1 72
2019-05-26 15:00:00 22.5 21 Sudoeste 30 Sudoeste 0 1014.2 -0.8 73
2019-05-26 14:00:00 22.5 24 Sudoeste 35 Sudoeste 0 1014.8 -0.4 73
2019-05-26 13:00:00 22.4 19 Sudoeste 24 Sur 0 1015 -0.1 69
2019-05-26 12:00:00 21.3 13 Sur 18 Sudoeste 0 1015 -0.3 75
2019-05-26 11:00:00 20.8 12 Sur 17 Sur 0 1015.2 0.1 77
2019-05-26 10:00:00 20.4 9 Sur 13 Sur 0 1015.1 0.3 74
2019-05-26 09:00:00 20 6 Sur 11 Sur 0 1015.3 0.5 74
2019-05-26 08:00:00 17.7 7 Noroeste 13 Norte 0 1015.1 -0.1 79
2019-05-26 07:00:00 15.9 9 Noroeste 11 Noroeste 0 1014.8 -0.6 90
2019-05-26 06:00:00 16.6 5 Noroeste -- -- 0 1014.8 -0.9 91
2019-05-26 05:00:00 16.5 6 Norte 8 Norte 0 1015.2 -0.7 90
2019-05-26 04:00:00 16.9 5 Nordeste 9 Nordeste 0 1015.4 -0.7 88
2019-05-26 03:00:00 17.4 6 Nordeste 9 Nordeste 0 1015.7 -0.4 89
2019-05-26 02:00:00 18.1 3 Norte 9 Sudoeste 0 1015.9 -0.1 89
2019-05-26 01:00:00 18.4 6 Sudoeste 11 Sudoeste 0 1016.1 0.6 89
2019-05-26 00:00:00 18.7 10 Sudoeste 11 Sudoeste 0 1016.1 1.1 86
2019-05-25 23:00:00 19.1 8 Sudoeste 9 Sudoeste 0 1016 1.4 85
2019-05-25 22:00:00 19.2 7 Sudoeste 9 Sudoeste 0 1015.5 1.2 83
2019-05-25 21:00:00 19.7 8 Sudoeste 11 Sudoeste 0 1015 0.8 80
2019-05-25 20:00:00 20.4 10 Sur 15 Sur 0 1014.6 0.9 77
2019-05-25 19:00:00 21.2 12 Sur 18 Sur 0 1014.3 0.3 72
2019-05-25 18:00:00 22.2 13 Sur 22 Sur 0 1014.2 -0.1 68
2019-05-25 17:00:00 22.4 18 Sur 24 Sur 0 1013.7 -0.5 68
2019-05-25 16:00:00 22.8 17 Sur 24 Sur 0 1014 -0.1 65
2019-05-25 15:00:00 22.2 17 Sur 22 Sur 0 1014.3 0.6 69
2019-05-25 14:00:00 22.3 15 Sur 22 Sur 0 1014.2 1.1 67
2019-05-25 13:00:00 22.2 17 Sur 24 Sudoeste 0 1014.1 1.4 63
2019-05-25 12:00:00 22.3 19 Sur 26 Sur 0 1013.7 1.1 57
2019-05-25 11:00:00 22.4 17 Sur 24 Sur 0 1013.1 0.9 50
2019-05-25 10:00:00 22.9 9 Oeste 21 Oeste 0 1012.7 0.8 33
2019-05-25 09:00:00 20.3 14 Noroeste 24 Noroeste 0 1012.6 0.9 38
2019-05-25 08:00:00 18.6 15 Noroeste 21 Noroeste 0 1012.2 0.6 41
2019-05-25 07:00:00 17.7 12 Noroeste 18 Noroeste 0 1011.9 0.1 43
2019-05-25 06:00:00 17.7 13 Noroeste 15 Noroeste 0 1011.7 0.3 45
2019-05-25 05:00:00 18.9 10 Norte 22 Nordeste 0 1011.6 -0.1 40
2019-05-25 04:00:00 20.2 14 Norte 32 Norte 0 1011.8 0.2 37
2019-05-25 03:00:00 20.4 21 Nordeste 41 Nordeste 0 1011.4 0.3 38
2019-05-25 02:00:00 20.9 24 Nordeste 41 Nordeste 0 1011.7 1.3 36
2019-05-25 01:00:00 20.9 22 Nordeste 39 Nordeste 0 1011.6 2 39
2019-05-25 00:00:00 20.8 31 Nordeste 50 Nordeste 0 1011.1 2.2 44
2019-05-24 23:00:00 20.8 33 Nordeste 52 Nordeste 0 1010.4 2 53
2019-05-24 22:00:00 21.2 36 Nordeste 55 Nordeste 0 1009.6 1.1 65
2019-05-24 21:00:00 21.6 39 Nordeste 54 Este 0 1008.9 0.4 71
2019-05-24 20:00:00 22.6 31 Este 45 Este 0 1008.4 0 69
2019-05-24 19:00:00 21.4 9 Sudoeste 17 Sudeste 0 1008.5 0.3 80
2019-05-24 18:00:00 21.7 5 Sudeste 24 Sudeste 0 1008.5 0.4 80
2019-05-24 17:00:00 22.4 18 Sudeste 24 Sudeste 0 1008.4 -0.2 76
2019-05-24 16:00:00 22.6 13 Sudeste 18 Sudeste 0 1008.2 -1.2 73
2019-05-24 15:00:00 22.7 12 Sur 21 Sur 0 1008.1 -1.3 73
2019-05-24 14:00:00 22.3 15 Sur 22 Sudoeste 0 1008.6 -0.7 73
2019-05-24 13:00:00 21.5 8 Sur 15 Sur 0 1009.4 0.1 78
2019-05-24 12:00:00 20.7 9 Sur 13 Sudeste 0 1009.4 0.2 78
2019-05-24 11:00:00 20.1 8 Sur 13 Sur 0 1009.3 -0.1 85
2019-05-24 10:00:00 20.6 11 Sudoeste 15 Sudoeste 0 1009.3 -0.6 63
2019-05-24 09:00:00 20.6 3 Este 8 Sudoeste 0 1009.2 -1 64
2019-05-24 08:00:00 18.2 2 Sudoeste 9 Norte 0 1009.4 -1.2 61
2019-05-24 07:00:00 16.6 10 Norte 13 Norte 0 1009.9 -1.2 83
2019-05-24 06:00:00 17.1 4 Norte 8 Norte 0 1010.2 -1.5 74
2019-05-24 05:00:00 17.5 2 Norte 5 Nordeste 0 1010.6 -1.7 75
2019-05-24 04:00:00 18.1 6 Norte 8 Norte 0 1011.1 -1.7 78
2019-05-24 03:00:00 18.1 0 Calma 4 Sur 0 1011.7 -1.5 77
2019-05-24 02:00:00 19.1 0 Calma 9 Nordeste 0 1012.3 -0.5 77
2019-05-24 01:00:00 19.6 8 Nordeste 11 Nordeste 0 1012.8 0.7 76
2019-05-24 00:00:00 19.5 3 Oeste 11 Sur 0 1013.2 1.2 86
2019-05-23 23:00:00 19.8 8 Sur 9 Sur 0 1012.8 0.8 89
2019-05-23 22:00:00 20.6 3 Sudoeste 5 Sudoeste 0 1012.1 -0.4 79
2019-05-23 21:00:00 21.9 4 Sur 9 Sudoeste 0 1012 -1.1 68
2019-05-23 20:00:00 23.3 6 Sur 11 Sudoeste 0 1012 -1.5 61
2019-05-23 19:00:00 23.5 7 Sudoeste 18 Sudoeste 0 1012.5 -1.4 58
2019-05-23 18:00:00 23.4 13 Sudoeste 22 Sudoeste 0 1013.1 -1.2 59
2019-05-23 17:00:00 23.9 18 Sudoeste 24 Sudoeste 0 1013.5 -1.3 59
2019-05-23 16:00:00 23.7 17 Sudoeste 22 Sudoeste 0 1013.9 -0.9 60
2019-05-23 15:00:00 23.4 12 Sudoeste 22 Sur 0 1014.3 -0.9 62
2019-05-23 14:00:00 23.6 18 Sudoeste 24 Sudoeste 0 1014.8 -0.2 61
2019-05-23 13:00:00 24.2 13 Sudoeste 24 Sudoeste 0 1014.8 0.1 54
2019-05-23 12:00:00 22.9 10 Sudoeste 22 Sur 0 1015.2 0.6 66
2019-05-23 11:00:00 26.3 10 Sur 18 Sur 0 1015 0.3 32
2019-05-23 10:00:00 25.7 6 Noroeste 24 Norte 0 1014.7 -0.1 34
2019-05-23 09:00:00 21.8 18 Norte 32 Norte 0 1014.6 -0.3 43
2019-05-23 08:00:00 18.8 22 Noroeste 32 Noroeste 0 1014.7 -0.4 52
2019-05-23 07:00:00 17.9 15 Noroeste 22 Noroeste 0 1014.8 -0.7 53
2019-05-23 06:00:00 17.4 15 Noroeste 18 Noroeste 0 1014.9 -0.8 55
2019-05-23 05:00:00 17.7 9 Norte 13 Norte 0 1015.1 -0.7 50
2019-05-23 04:00:00 18.4 10 Norte 15 Norte 0 1015.5 -0.4 56
2019-05-23 03:00:00 19.1 9 Norte 13 Norte 0 1015.7 0 48
2019-05-23 02:00:00 20.1 7 Norte 15 Nordeste 0 1015.8 0.6 40
2019-05-23 01:00:00 19.6 9 Nordeste 15 Nordeste 0 1015.9 1.4 52
2019-05-23 00:00:00 19.8 11 Nordeste 15 Nordeste 0 1015.7 1.6 45
2019-05-22 23:00:00 20.9 10 Nordeste 21 Este 0 1015.2 1 39
2019-05-22 22:00:00 21.4 12 Este 18 Este 0 1014.5 0.4 46
2019-05-22 21:00:00 22.5 4 Sudoeste 17 Sudoeste 0 1014.1 -0.5 65
2019-05-22 20:00:00 22 14 Sudoeste 18 Sudoeste 0 1014.2 -0.6 79
2019-05-22 19:00:00 22.6 16 Sudoeste 21 Sudoeste 0 1014.1 -0.9 75
2019-05-22 18:00:00 23.4 17 Sudoeste 22 Sudoeste 0 1014.6 -0.6 70
2019-05-22 17:00:00 23.3 16 Sudoeste 24 Sur 0 1014.8 -0.4 72
2019-05-22 16:00:00 23.3 19 Sur 30 Sur 0 1015 -0.2 74
2019-05-22 15:00:00 23.2 18 Sur 26 Sur 0 1015.2 -0.1 72
2019-05-22 14:00:00 23.6 19 Sur 30 Sur 0 1015.2 -0.1 70
2019-05-22 13:00:00 23.8 17 Sur 22 Sur 0 1015.2 0 68
2019-05-22 12:00:00 22.8 12 Sur 17 Sur 0 1015.3 0.5 69
2019-05-22 11:00:00 23.5 10 Sur 15 Sur 0 1015.3 0.7 57
2019-05-22 10:00:00 22.6 10 Sudeste 17 Este 0 1015.2 0.7 55
2019-05-22 09:00:00 20.9 9 Norte 26 Norte 0 1014.8 0.5 58
2019-05-22 08:00:00 17.7 17 Norte 28 Norte 0 1014.6 0.3 73
2019-05-22 07:00:00 15.8 9 Noroeste 13 Noroeste 0 1014.5 0.1 85
2019-05-22 06:00:00 15.8 4 Norte 9 Norte 0 1014.3 -0.2 85
2019-05-22 05:00:00 16.7 4 Noroeste 5 Noroeste 0 1014.3 -0.3 84
2019-05-22 04:00:00 17.7 3 Norte 13 Norte 0 1014.4 0.1 81
2019-05-22 03:00:00 17.5 12 Nordeste 15 Nordeste 0 1014.5 0.4 83
2019-05-22 02:00:00 18.3 7 Nordeste 13 Este 0 1014.6 0.7 79
2019-05-22 01:00:00 18.7 11 Este 22 Este 0 1014.3 1.3 76
2019-05-22 00:00:00 19.1 14 Este 21 Este 0 1014.1 1.5 82
2019-05-21 23:00:00 19.4 11 Este 17 Este 0 1013.9 1.7 82
2019-05-21 22:00:00 19.4 4 Sudoeste 9 Oeste 0 1013 0.9 84
2019-05-21 21:00:00 20 6 Oeste 17 Oeste 0 1012.6 0.5 83
2019-05-21 20:00:00 20.5 12 Oeste 17 Oeste 0 1012.2 0.2 80
2019-05-21 19:00:00 20.9 9 Sudoeste 15 Sudoeste 0 1012.1 -0.1 80
2019-05-21 18:00:00 21.3 7 Sur 13 Sur 0 1012.1 -0.4 74
2019-05-21 17:00:00 20.8 10 Sur 17 Sudoeste 0 1012 -0.3 74
2019-05-21 16:00:00 20.8 8 Sudoeste 18 Sudoeste 0 1012.2 0 77
2019-05-21 15:00:00 21.4 12 Sudoeste 28 Sudoeste 0 1012.5 0.3 76
2019-05-21 14:00:00 22.5 18 Sur 28 Sur 0 1012.3 0.4 72
2019-05-21 13:00:00 22.3 19 Sur 26 Sur 0 1012.2 0.2 76
2019-05-21 12:00:00 21.8 17 Sur 24 Sur 0 1012.2 0.7 79
2019-05-21 11:00:00 20.4 10 Sur 13 Sudoeste 0 1011.9 0.7 81
2019-05-21 10:00:00 20.8 10 Sur 13 Sur 0 1012 1.4 71
2019-05-21 09:00:00 20.2 6 Este 11 Este 0 1011.5 1 69
2019-05-21 08:00:00 17.6 7 Nordeste 11 Nordeste 0 1011.2 0.8 82
2019-05-21 07:00:00 17.4 9 Nordeste 11 Norte 0 1010.6 -0.1 88
2019-05-21 06:00:00 17 3 Norte 9 Norte 0 1010.5 -0.5 90
2019-05-21 05:00:00 17.3 4 Nordeste 9 Norte 0 1010.4 -0.7 91
2019-05-21 04:00:00 17.4 5 Este 9 Este 0 1010.7 -0.5 93
2019-05-21 03:00:00 18.1 8 Este 11 Este 0 1011 0.4 93
2019-05-21 02:00:00 17.9 8 Este 11 Este 0 1011.1 0.9 95
2019-05-21 01:00:00 18 6 Este 11 Este 0 1011.2 1.6 92
2019-05-21 00:00:00 18 4 Este 11 Sudeste 0 1010.6 1.4 90
2019-05-20 23:00:00 18.6 6 Sudeste 9 Sudeste 0 1010.2 1.4 85
2019-05-20 22:00:00 18.7 8 Sudeste 11 Sudeste 0 1009.6 0.5 80
2019-05-20 21:00:00 19.6 6 Sudeste 9 Sudeste 0 1009.2 0 77
2019-05-20 20:00:00 20.5 5 Sur 13 Sur 0 1008.8 -0.7 68
2019-05-20 19:00:00 20.6 10 Sur 15 Sur 0 1009.1 -0.9 77
2019-05-20 18:00:00 20.9 10 Sur 15 Sur 0 1009.2 -1 76
2019-05-20 17:00:00 21.4 8 Sur 17 Sur 0 1009.5 -0.8 71
2019-05-20 16:00:00 21.4 10 Sur 18 Sur 0 1010 -0.6 76
2019-05-20 15:00:00 21.1 10 Sur 17 Sudoeste 0 1010.2 -0.3 77
2019-05-20 14:00:00 21.3 9 Sudoeste 17 Sudoeste 0 1010.3 -0.1 77
2019-05-20 13:00:00 21.2 11 Sur 17 Sur 0 1010.6 0.7 78
2019-05-20 12:00:00 21.1 10 Sur 17 Sur 0 1010.5 1.2 70
2019-05-20 11:00:00 20.3 13 Sur 22 Sur 0 1010.4 1.5 79
2019-05-20 10:00:00 20.6 12 Sudeste 24 Sudeste 0 1009.9 1.5 66
2019-05-20 09:00:00 19.8 5 Sudeste 15 Sudeste 0 1009.3 1.3 56
2019-05-20 08:00:00 17.4 4 Nordeste 13 Noroeste 0 1008.9 0.5 58
2019-05-20 07:00:00 15.9 5 Oeste 11 Nordeste 0 1008.4 0 67
2019-05-20 06:00:00 16.4 3 Norte 17 Norte 0 1008 -0.6 66
2019-05-20 05:00:00 16.6 8 Norte 11 Norte 0 1008.4 -0.4 72
2019-05-20 04:00:00 17.3 4 Norte 17 Nordeste 0 1008.4 -1 69
2019-05-20 03:00:00 16.7 10 Este 18 Este 0 1008.6 -0.7 88
2019-05-20 02:00:00 16.8 13 Norte 17 Norte 0 1008.8 -0.1 84
2019-05-20 01:00:00 16.7 10 Nordeste 13 Nordeste 0 1009.4 1.1 86
2019-05-20 00:00:00 17 9 Este 15 Este 0 1009.3 1.3 82
2019-05-19 23:00:00 17.5 11 Nordeste 13 Nordeste 0 1008.9 1.5 79
2019-05-19 22:00:00 17.9 7 Este 13 Sudeste 0 1008.3 1.1 79
2019-05-19 21:00:00 18.6 8 Sudeste 15 Sur 0 1008 0.4 75
2019-05-19 20:00:00 19.4 13 Sur 21 Sur 0 1007.4 -0.3 72
2019-05-19 19:00:00 20.1 13 Sudeste 26 Sur 0 1007.2 -0.7 70
2019-05-19 18:00:00 20.7 19 Sur 35 Sur 0 1007.6 -0.3 65
2019-05-19 17:00:00 20.7 27 Sudoeste 37 Sudoeste 0 1007.7 -0.2 66
2019-05-19 16:00:00 21.2 28 Sudoeste 37 Sudoeste 0 1007.9 -0.3 63
2019-05-19 15:00:00 21 27 Sudoeste 37 Sudoeste 0 1007.9 -0.4 62
2019-05-19 14:00:00 21.3 28 Sudoeste 41 Sudoeste 0 1007.9 -0.5 62
2019-05-19 13:00:00 20.7 28 Sudoeste 37 Sudoeste 0 1008.2 -0.1 63
2019-05-19 12:00:00 20.6 21 Sudoeste 28 Sudoeste 0 1008.3 0.2 61
2019-05-19 11:00:00 20.5 15 Sur 21 Sur 0 1008.4 0.8 72
2019-05-19 10:00:00 19.7 8 Sudoeste 13 Sudoeste 0 1008.3 1.2 62
2019-05-19 09:00:00 17.9 3 Nordeste 11 Nordeste 0 1008.1 1.2 74
2019-05-19 08:00:00 17.1 9 Este 15 Este 0 1007.6 0.1 73
2019-05-19 07:00:00 16.3 5 Noroeste 21 Sudeste 0 1007.1 -0.7 80
2019-05-19 06:00:00 17.5 13 Norte 22 Nordeste 0 1006.9 -1.2 60
2019-05-19 05:00:00 16.2 10 Nordeste 13 Este 0 1007.5 -0.8 86
2019-05-19 04:00:00 16.3 6 Este 9 Este 0 1007.8 -0.3 88
2019-05-19 03:00:00 16.4 3 Oeste 15 Oeste 0 1008.1 -0.2 89
2019-05-19 02:00:00 16.9 9 Oeste 18 Este 0 1008.3 0.4 84
2019-05-19 01:00:00 16.6 10 Este 18 Este 0 1008.1 1.1 84
2019-05-19 00:00:00 17.5 12 Este 22 Este 0 1008.3 1.9 81
2019-05-18 23:00:00 18 13 Sudoeste 22 Sudoeste 0 1007.9 2.5 76
2019-05-18 22:00:00 18.4 9 Oeste 22 Sudoeste 0 1007 2 69
2019-05-18 21:00:00 19.8 13 Sudoeste 35 Oeste 0 1006.4 1.5 66
2019-05-18 20:00:00 20.9 25 Sudoeste 42 Sudoeste 0 1005.4 0.5 59
2019-05-18 19:00:00 21.6 38 Sudoeste 52 Sudoeste 0 1005 -0.2 57
2019-05-18 18:00:00 22.4 36 Sudoeste 50 Sudoeste 0 1004.9 -0.6 53
2019-05-18 17:00:00 23.1 36 Sudoeste 48 Sudoeste 0 1004.9 -0.9 48
2019-05-18 16:00:00 23 31 Sudoeste 42 Sudoeste 0 1005.2 -0.7 51
2019-05-18 15:00:00 21.7 31 Sudoeste 41 Sudoeste 0 1005.5 -0.3 63
2019-05-18 14:00:00 21.4 32 Sudoeste 42 Sudoeste 0 1005.8 -0.1 62
2019-05-18 13:00:00 22.9 32 Sudoeste 42 Sudoeste 0 1005.9 -0.1 42
2019-05-18 12:00:00 20.9 15 Sudoeste 30 Sudoeste 0 1005.8 -0.2 61
2019-05-18 11:00:00 21.3 22 Sur 33 Sur 0 1005.9 0.3 60
2019-05-18 10:00:00 20.2 13 Sudoeste 22 Sudoeste 0 1006 0.2 63
2019-05-18 09:00:00 20.7 7 Oeste 17 Norte 0 1006 0.5 34
2019-05-18 08:00:00 18.5 13 Norte 24 Norte 0 1005.6 -0.2 45
2019-05-18 07:00:00 15.7 14 Norte 21 Norte 0 1005.8 -0.4 89
2019-05-18 06:00:00 15.3 7 Norte 15 Norte 0 1005.5 -1.1 91
2019-05-18 05:00:00 15.2 10 Este 18 Este 0 1005.8 -1.2 92
2019-05-18 04:00:00 16.4 7 Nordeste 15 Nordeste 0 1006.2 -0.9 87
2019-05-18 03:00:00 17.3 5 Sudoeste 15 Este 0 1006.6 -0.6 87
2019-05-18 02:00:00 20 9 Oeste 41 Noroeste 0 1007 -0.2 63
2019-05-18 01:00:00 18.5 8 Noroeste 21 Sudeste 0 1007.1 0.4 51
2019-05-18 00:00:00 16.9 10 Este 17 Este 0 1007.2 1.3 86
2019-05-17 23:00:00 17.6 7 Este 24 Sur 0 1007.2 1.8 86
2019-05-17 22:00:00 18.3 11 Este 18 Este 0 1006.7 1.7 87
2019-05-17 21:00:00 19.4 5 Nordeste 15 Sudoeste 0 1005.9 0.8 70
2019-05-17 20:00:00 21.4 9 Sur 13 Sur 0 1005.4 0.3 69
2019-05-17 19:00:00 21 7 Sur 17 Sudoeste 0 1005 -0.3 65
2019-05-17 18:00:00 21.3 12 Sudoeste 18 Sudoeste 0 1005.1 -0.4 62
2019-05-17 17:00:00 22.3 6 Sur 18 Sudoeste 0 1005.1 -0.1 50
2019-05-17 16:00:00 21.5 14 Sur 33 Sudoeste 0 1005.3 0.3 57
2019-05-17 15:00:00 21.6 22 Sudoeste 33 Sudoeste 0 1005.5 0.9 61
2019-05-17 14:00:00 21.1 24 Sudoeste 39 Sudoeste 0 1005.2 0.9 64
2019-05-17 13:00:00 21.3 27 Sudoeste 41 Sudoeste 0 1005 1.2 60
2019-05-17 12:00:00 23.9 16 Sudoeste 28 Sudoeste 0 1004.6 1.1 40
2019-05-17 11:00:00 21.4 18 Sudoeste 30 Sur 0 1004.3 1.4 64
2019-05-17 10:00:00 20.6 13 Sur 26 Sudeste 0 1003.8 2.1 62
2019-05-17 09:00:00 19.5 14 Sur 22 Sur 0 1003.5 2.4 71
2019-05-17 08:00:00 18.9 12 Sudoeste 21 Sudoeste 0 1002.9 1.7 78
2019-05-17 07:00:00 18 5 Sur 21 Sur 0 1001.7 0.2 82
2019-05-17 06:00:00 18.2 6 Oeste 18 Sur 0 1001.1 -1 87
2019-05-17 05:00:00 17.3 3 Este 13 Norte 0 1001.2 -1.6 96
2019-05-17 04:00:00 17.3 3 Este 8 Nordeste 0 1001.5 -2 94
2019-05-17 03:00:00 18 4 Sudoeste 11 Sudoeste 0 1002.1 -2.1 94
2019-05-17 02:00:00 18.4 13 Sudoeste 24 Sudoeste 0 1002.8 -1.9 93
2019-05-17 01:00:00 18.6 17 Sudoeste 26 Sudoeste 0 1003.5 -1.4 94
2019-05-17 00:00:00 18.5 18 Sudoeste 32 Sudoeste 0 1004.2 -0.6 92